createdAt,value
2023-03-12T00:02:08.810Z,99743.85
2023-03-12T00:07:15.028Z,99735.23
2023-03-12T00:12:19.402Z,99734.05
2023-03-12T00:17:23.500Z,99728.95
2023-03-12T00:22:27.810Z,99728.34
2023-03-12T00:27:34.841Z,99730.00
2023-03-12T00:32:39.255Z,99730.33
2023-03-12T00:37:43.329Z,99730.56
2023-03-12T00:42:47.375Z,99727.46
2023-03-12T00:47:51.778Z,99723.08
2023-03-12T00:52:56.537Z,99720.20
2023-03-12T00:58:00.373Z,99721.67
2023-03-12T01:03:04.722Z,99722.29
2023-03-12T01:08:09.797Z,99725.09
2023-03-12T01:13:16.957Z,99728.42
2023-03-12T01:18:21.876Z,99729.10
2023-03-12T01:23:26.590Z,99730.55
2023-03-12T01:28:30.900Z,99730.49
2023-03-12T01:33:34.922Z,99729.28
2023-03-12T01:38:41.729Z,99727.30
2023-03-12T01:43:46.947Z,99723.27
2023-03-12T01:49:20.745Z,99723.46
2023-03-12T01:54:35.498Z,99725.27
2023-03-12T01:59:44.806Z,99727.54
2023-03-12T02:04:52.263Z,99723.09
2023-03-12T02:09:57.712Z,99726.27
2023-03-12T02:15:02.452Z,99733.72
2023-03-12T02:20:37.742Z,99738.36
2023-03-12T02:25:47.584Z,99738.52
2023-03-12T02:30:53.448Z,99745.06
2023-03-12T02:35:58.566Z,99748.58
2023-03-12T02:41:24.955Z,99753.71
2023-03-12T02:46:34.096Z,99755.86
2023-03-12T02:51:38.076Z,99756.56
2023-03-12T02:56:43.704Z,99757.20
2023-03-12T03:01:48.316Z,99756.45
2023-03-12T03:06:52.888Z,99756.42
2023-03-12T03:11:57.985Z,99762.77
2023-03-12T03:17:03.551Z,99761.70
2023-03-12T03:22:08.082Z,99766.27
2023-03-12T03:27:12.769Z,99771.04
2023-03-12T03:32:18.423Z,99780.30
2023-03-12T03:37:24.136Z,99787.92
2023-03-12T03:42:29.045Z,99791.80
2023-03-12T03:47:34.022Z,99798.14
2023-03-12T03:52:40.240Z,99801.30
2023-03-12T03:57:44.945Z,99801.84
2023-03-12T04:02:50.279Z,99807.08
2023-03-12T04:07:57.035Z,99806.48
2023-03-12T04:13:02.517Z,99808.27
2023-03-12T04:18:07.646Z,99816.38
2023-03-12T04:23:12.396Z,99819.80
2023-03-12T04:28:16.986Z,99826.17
2023-03-12T04:33:22.955Z,99833.04
2023-03-12T04:38:30.435Z,99836.64
2023-03-12T04:43:36.475Z,99844.49
2023-03-12T04:48:40.632Z,99847.17
2023-03-12T04:53:46.638Z,99845.10
2023-03-12T04:58:51.021Z,99850.05
2023-03-12T05:03:55.936Z,99860.09
2023-03-12T05:09:02.033Z,99867.23
2023-03-12T05:14:07.743Z,99870.64
2023-03-12T05:19:12.929Z,99866.97
2023-03-12T05:24:19.630Z,99870.81
2023-03-12T05:29:24.144Z,99870.45
2023-03-12T05:34:32.206Z,99879.02
2023-03-12T05:39:39.160Z,99884.33
2023-03-12T05:44:43.762Z,99885.65
2023-03-12T05:49:53.943Z,99884.89
2023-03-12T05:54:59.698Z,99886.77
2023-03-12T06:00:04.889Z,99895.38
2023-03-12T06:05:17.347Z,99907.20
2023-03-12T06:10:21.623Z,99916.92
2023-03-12T06:15:26.896Z,99916.77
2023-03-12T06:20:31.941Z,99928.70
2023-03-12T06:25:36.630Z,99935.86
2023-03-12T06:30:42.350Z,99938.85
2023-03-12T06:35:46.847Z,99934.30
2023-03-12T06:41:00.437Z,99937.95
2023-03-12T06:46:07.513Z,99945.64
2023-03-12T06:51:14.216Z,99954.62
2023-03-12T06:56:20.341Z,99957.73
2023-03-12T07:01:24.420Z,99967.66
2023-03-12T07:06:29.712Z,99972.17
2023-03-12T07:11:34.104Z,99977.98
2023-03-12T07:16:38.048Z,99978.75
2023-03-12T07:21:42.390Z,99986.68
2023-03-12T07:26:47.345Z,99991.51
2023-03-12T07:31:51.750Z,99994.20
2023-03-12T07:36:57.093Z,100001.27
2023-03-12T07:42:01.279Z,100008.17
2023-03-12T07:47:22.712Z,100015.86
2023-03-12T07:52:27.561Z,100016.12
2023-03-12T07:57:32.348Z,100017.53
2023-03-12T08:02:37.733Z,100016.91
2023-03-12T08:07:42.267Z,100018.11
2023-03-12T08:12:47.061Z,100023.41
2023-03-12T08:17:52.002Z,100016.45
2023-03-12T08:22:55.973Z,100026.30
2023-03-12T08:27:59.805Z,100021.28
2023-03-12T08:33:04.937Z,100027.95
2023-03-12T08:38:09.386Z,100029.23
2023-03-12T08:43:14.205Z,100028.34
2023-03-12T08:48:18.409Z,100033.94
2023-03-12T08:53:23.838Z,100034.62
2023-03-12T08:58:29.334Z,100039.53
2023-03-12T09:03:33.649Z,100040.33
2023-03-12T09:08:38.535Z,100033.89
2023-03-12T09:14:16.913Z,100033.52
2023-03-12T09:19:09.603Z,100035.39
2023-03-12T09:24:14.247Z,100032.27
2023-03-12T09:29:21.398Z,100040.63
2023-03-12T09:34:27.657Z,100037.48
2023-03-12T09:39:31.999Z,100040.88
2023-03-12T09:44:43.733Z,100040.90
2023-03-12T09:49:51.502Z,100041.15
2023-03-12T09:55:03.204Z,100038.52
2023-03-12T10:00:19.152Z,100030.79
2023-03-12T10:05:45.222Z,100035.95
2023-03-12T10:11:27.869Z,100035.45
2023-03-12T10:16:35.746Z,100031.61
2023-03-12T10:22:21.577Z,100032.27
2023-03-12T10:27:30.308Z,100032.16
2023-03-12T10:32:44.894Z,100039.29
2023-03-12T10:38:02.302Z,100031.78
2023-03-12T10:43:07.717Z,100029.23
2023-03-12T10:48:19.581Z,100033.38
2023-03-12T10:53:30.091Z,100039.23
2023-03-12T10:58:54.512Z,100030.45
2023-03-12T11:04:18.180Z,100025.15
2023-03-12T11:09:22.371Z,100027.13
2023-03-12T11:14:30.953Z,100031.48
2023-03-12T11:19:36.162Z,100024.63
2023-03-12T11:25:02.159Z,100023.09
2023-03-12T11:30:09.384Z,100013.80
2023-03-12T11:35:15.513Z,100002.75
2023-03-12T11:40:39.325Z,100003.05
2023-03-12T11:46:02.519Z,99993.25
2023-03-12T11:51:39.741Z,99994.90
2023-03-12T11:57:13.732Z,99991.21
2023-03-12T12:02:48.672Z,99987.01
2023-03-12T12:08:12.572Z,99991.56
2023-03-12T12:13:44.003Z,99989.16
2023-03-12T12:19:27.283Z,99985.48
2023-03-12T12:24:41.977Z,99974.42
2023-03-12T12:30:08.652Z,99972.80
2023-03-12T12:35:34.627Z,99979.05
2023-03-12T12:40:49.994Z,99974.04
2023-03-12T12:45:58.804Z,99968.95
2023-03-12T12:51:06.944Z,99972.86
2023-03-12T12:56:23.451Z,99965.52
2023-03-12T13:01:28.097Z,99968.15
2023-03-12T13:07:04.848Z,99964.45
2023-03-12T13:12:33.544Z,99961.04
2023-03-12T13:17:54.057Z,99954.73
2023-03-12T13:23:23.950Z,99947.45
2023-03-12T13:29:05.984Z,99937.22
2023-03-12T13:34:19.768Z,99942.66
2023-03-12T13:39:35.499Z,99945.92
2023-03-12T13:44:40.871Z,99945.77
2023-03-12T13:49:54.302Z,99951.67
2023-03-12T13:55:22.200Z,99956.73
2023-03-12T14:00:38.245Z,99946.16
2023-03-12T14:05:56.247Z,99940.05
2023-03-12T14:11:19.930Z,99944.33
2023-03-12T14:16:29.097Z,99942.09
2023-03-12T14:21:39.966Z,99937.89
2023-03-12T14:26:46.248Z,99931.81
2023-03-12T14:31:56.850Z,99935.98
2023-03-12T14:37:16.699Z,99931.08
2023-03-12T14:42:28.387Z,99931.83
2023-03-12T14:47:53.228Z,99932.11
2023-03-12T14:53:25.108Z,99928.35
2023-03-12T14:58:30.211Z,99922.15
2023-03-12T15:03:49.867Z,99912.17
2023-03-12T15:08:57.741Z,99899.27
2023-03-12T15:14:09.254Z,99895.23
2023-03-12T15:19:22.558Z,99892.52
2023-03-12T15:24:26.823Z,99895.16
2023-03-12T15:29:32.197Z,99896.10
2023-03-12T15:34:40.714Z,99886.16
2023-03-12T15:39:52.825Z,99879.00
2023-03-12T15:45:03.137Z,99879.64
2023-03-12T15:50:21.396Z,99882.55
2023-03-12T15:55:31.305Z,99883.23
2023-03-12T16:00:46.345Z,99867.21
2023-03-12T16:05:52.031Z,99844.48
2023-03-12T16:10:59.677Z,99836.37
2023-03-12T16:16:07.843Z,99828.61
2023-03-12T16:21:14.984Z,99845.27
2023-03-12T16:26:26.970Z,99865.81
2023-03-12T16:31:32.066Z,99849.11
2023-03-12T16:36:40.936Z,99845.38
2023-03-12T16:41:51.265Z,99840.70
2023-03-12T16:46:58.913Z,99835.38
2023-03-12T16:52:15.593Z,99836.80
2023-03-12T16:57:41.374Z,99852.67
2023-03-12T17:02:50.865Z,99848.55
2023-03-12T17:08:01.482Z,99838.45
2023-03-12T17:13:06.421Z,99861.80
2023-03-12T17:18:14.896Z,99866.77
2023-03-12T17:23:22.226Z,99864.88
2023-03-12T17:28:30.008Z,99856.10
2023-03-12T17:33:35.983Z,99853.08
2023-03-12T17:38:43.350Z,99843.50
2023-03-12T17:43:51.972Z,99851.33
2023-03-12T17:49:00.312Z,99861.86
2023-03-12T17:54:08.814Z,99869.48
2023-03-12T17:59:16.064Z,99867.21
2023-03-12T18:04:27.505Z,99857.28
2023-03-12T18:09:33.857Z,99840.48
2023-03-12T18:14:42.803Z,99826.23
2023-03-12T18:19:48.475Z,99816.74
2023-03-12T18:24:58.951Z,99816.69
2023-03-12T18:30:05.277Z,99833.44
2023-03-12T18:35:17.759Z,99841.46
2023-03-12T18:40:26.524Z,99835.45
2023-03-12T18:45:37.032Z,99828.14
2023-03-12T18:50:44.705Z,99823.96
2023-03-12T18:56:17.809Z,99810.19
2023-03-12T19:01:24.026Z,99795.98
2023-03-12T19:06:37.733Z,99785.02
2023-03-12T19:11:52.549Z,99782.36
2023-03-12T19:17:06.396Z,99781.09
2023-03-12T19:22:14.246Z,99780.80
2023-03-12T19:27:20.922Z,99771.98
2023-03-12T19:32:40.667Z,99766.52
2023-03-12T19:37:51.036Z,99757.34
2023-03-12T19:42:59.030Z,99757.46
2023-03-12T19:48:05.906Z,99747.70
2023-03-12T19:53:13.633Z,99746.82
2023-03-12T19:58:21.105Z,99749.64
2023-03-12T20:03:27.984Z,99754.98
2023-03-12T20:08:37.422Z,99760.37
2023-03-12T20:13:54.590Z,99756.48
2023-03-12T20:19:04.964Z,99757.50
2023-03-12T20:24:12.285Z,99754.86
2023-03-12T20:29:18.811Z,99760.49
2023-03-12T20:34:29.167Z,99761.55
2023-03-12T20:39:38.302Z,99757.40
2023-03-12T20:44:47.125Z,99749.98
2023-03-12T20:49:56.976Z,99751.63
2023-03-12T20:55:04.320Z,99755.48
2023-03-12T21:00:12.844Z,99756.98
2023-03-12T21:05:23.267Z,99757.23
2023-03-12T21:10:31.800Z,99752.91
2023-03-12T21:15:39.238Z,99743.20
2023-03-12T21:20:44.631Z,99738.98
2023-03-12T21:26:00.272Z,99739.08
2023-03-12T21:31:10.877Z,99739.29
2023-03-12T21:36:17.193Z,99735.25
2023-03-12T21:42:16.951Z,99726.81
2023-03-12T21:47:20.854Z,99718.05
2023-03-12T21:52:25.136Z,99720.10
2023-03-12T21:57:30.789Z,99717.98
2023-03-12T22:02:34.567Z,99715.67
2023-03-12T22:07:39.182Z,99716.17
2023-03-12T22:12:42.855Z,99715.98
2023-03-12T22:17:46.878Z,99705.46
2023-03-12T22:22:50.575Z,99694.77
2023-03-12T22:27:54.188Z,99690.75
2023-03-12T22:32:59.218Z,99686.23
2023-03-12T22:38:03.006Z,99684.60
2023-03-12T22:43:07.160Z,99676.32
2023-03-12T22:48:11.979Z,99671.71
2023-03-12T22:53:15.901Z,99660.84
2023-03-12T22:58:21.806Z,99663.30
2023-03-12T23:03:28.539Z,99669.95
2023-03-12T23:08:32.794Z,99665.26
2023-03-12T23:13:41.895Z,99659.08
2023-03-12T23:18:47.984Z,99647.84
2023-03-12T23:45:13.106Z,99610.83
2023-03-12T23:50:18.463Z,99620.73
2023-03-12T23:55:22.258Z,99621.41
